Terminal Aerodrome Forecast
Issued by NWS

Home | Current Version | Previous Version | Text Only | Print | Product List | Glossary On
Versions: 1 2 3 4 5 6 7 8 9 10 11 12 13 14 15 16 17 18
000
FTUS43 KDTX 290707 AAA
TAFDET
TAF AMD
KDET 290707Z 2907/3006 00000KT P6SM SCT200
     FM290900 00000KT 6SM BR SCT018
      TEMPO 2910/2912 3SM BR BKN010
     FM291400 03005KT P6SM SCT015
     FM291600 06005KT P6SM SCT040
     FM292000 03005KT P6SM SKC
     FM300100 VRB03KT P6SM BKN250=

USA.gov is the U.S. government's official web portal to all federal, state and local government web resources and services.